sensor_id;sensor_type;location;lat;lon;timestamp;pressure;altitude;pressure_sealevel;temperature;humidity
8515;BME280;4295;51.024;7.000;2022-09-24T00:01:32;-3244.06;;;-143.72;100.00
8515;BME280;4295;51.024;7.000;2022-09-24T00:04:00;-3244.06;;;-143.72;100.00
8515;BME280;4295;51.024;7.000;2022-09-24T00:06:27;-3493.88;;;-143.72;100.00
8515;BME280;4295;51.024;7.000;2022-09-24T00:08:54;-3743.66;;;-143.72;100.00
8515;BME280;4295;51.024;7.000;2022-09-24T00:11:22;-3743.66;;;-143.72;100.00
8515;BME280;4295;51.024;7.000;2022-09-24T00:13:49;-3993.44;;;-143.72;100.00
8515;BME280;4295;51.024;7.000;2022-09-24T00:16:16;-3993.44;;;-143.72;100.00
8515;BME280;4295;51.024;7.000;2022-09-24T00:18:42;-3993.44;;;-143.72;100.00
8515;BME280;4295;51.024;7.000;2022-09-24T00:21:15;-3993.44;;;-143.72;100.00
8515;BME280;4295;51.024;7.000;2022-09-24T00:23:41;-3993.44;;;-143.72;100.00
8515;BME280;4295;51.024;7.000;2022-09-24T00:26:09;-3993.44;;;-143.72;100.00
8515;BME280;4295;51.024;7.000;2022-09-24T00:28:53;-3743.66;;;-143.72;100.00
8515;BME280;4295;51.024;7.000;2022-09-24T00:31:18;-3493.88;;;-143.72;100.00
8515;BME280;4295;51.024;7.000;2022-09-24T00:33:43;-3493.88;;;-143.72;100.00
8515;BME280;4295;51.024;7.000;2022-09-24T00:36:09;-3493.88;;;-143.72;100.00
8515;BME280;4295;51.024;7.000;2022-09-24T00:38:34;-3244.06;;;-143.72;100.00
8515;BME280;4295;51.024;7.000;2022-09-24T00:41:00;-3493.88;;;-143.72;100.00
8515;BME280;4295;51.024;7.000;2022-09-24T00:46:15;-3743.66;;;-143.72;100.00
8515;BME280;4295;51.024;7.000;2022-09-24T00:48:40;-3993.44;;;-143.72;100.00
8515;BME280;4295;51.024;7.000;2022-09-24T00:51:07;-4243.19;;;-143.72;100.00
8515;BME280;4295;51.024;7.000;2022-09-24T00:53:34;-4492.91;;;-143.72;100.00
8515;BME280;4295;51.024;7.000;2022-09-24T00:56:02;-4742.63;;;-143.72;100.00
8515;BME280;4295;51.024;7.000;2022-09-24T00:58:29;-5242.00;;;-143.72;100.00
8515;BME280;4295;51.024;7.000;2022-09-24T01:01:01;-5491.66;;;-143.72;100.00
8515;BME280;4295;51.024;7.000;2022-09-24T01:03:29;-5741.28;;;-143.72;100.00
8515;BME280;4295;51.024;7.000;2022-09-24T01:05:57;-5741.28;;;-143.72;100.00
8515;BME280;4295;51.024;7.000;2022-09-24T01:08:22;-5990.91;;;-143.72;100.00
8515;BME280;4295;51.024;7.000;2022-09-24T01:13:32;-5990.91;;;-143.72;100.00
8515;BME280;4295;51.024;7.000;2022-09-24T01:16:35;-6240.50;;;-143.72;100.00
8515;BME280;4295;51.024;7.000;2022-09-24T01:24:17;-5990.91;;;-143.72;100.00
8515;BME280;4295;51.024;7.000;2022-09-24T01:26:51;-5990.91;;;-143.72;100.00
8515;BME280;4295;51.024;7.000;2022-09-24T01:29:43;-5990.91;;;-143.72;100.00
8515;BME280;4295;51.024;7.000;2022-09-24T01:37:33;-5990.91;;;-143.72;100.00
8515;BME280;4295;51.024;7.000;2022-09-24T01:40:00;-5990.91;;;-143.72;100.00
8515;BME280;4295;51.024;7.000;2022-09-24T01:42:28;-5741.28;;;-143.72;100.00
8515;BME280;4295;51.024;7.000;2022-09-24T01:44:55;-5741.28;;;-143.72;100.00
8515;BME280;4295;51.024;7.000;2022-09-24T01:47:34;-5741.28;;;-143.72;100.00
8515;BME280;4295;51.024;7.000;2022-09-24T01:50:05;-5741.28;;;-143.72;100.00
8515;BME280;4295;51.024;7.000;2022-09-24T01:52:35;-5741.28;;;-143.72;100.00
8515;BME280;4295;51.024;7.000;2022-09-24T01:55:05;-5741.28;;;-143.72;100.00
8515;BME280;4295;51.024;7.000;2022-09-24T01:58:05;-5491.66;;;-143.72;100.00
8515;BME280;4295;51.024;7.000;2022-09-24T02:00:29;-5242.00;;;-143.72;100.00
8515;BME280;4295;51.024;7.000;2022-09-24T02:03:06;-5242.00;;;-143.72;100.00
8515;BME280;4295;51.024;7.000;2022-09-24T02:05:40;-5491.66;;;-143.72;100.00
8515;BME280;4295;51.024;7.000;2022-09-24T02:08:13;-5491.66;;;-143.72;100.00
8515;BME280;4295;51.024;7.000;2022-09-24T02:10:53;-5491.66;;;-143.72;100.00
8515;BME280;4295;51.024;7.000;2022-09-24T02:13:25;-5741.28;;;-143.72;100.00
8515;BME280;4295;51.024;7.000;2022-09-24T02:15:56;-5741.28;;;-143.72;100.00
8515;BME280;4295;51.024;7.000;2022-09-24T02:18:27;-5741.28;;;-143.72;100.00
8515;BME280;4295;51.024;7.000;2022-09-24T02:20:55;-5741.28;;;-143.72;100.00
8515;BME280;4295;51.024;7.000;2022-09-24T02:23:23;-5741.28;;;-143.72;100.00
8515;BME280;4295;51.024;7.000;2022-09-24T02:25:57;-5990.91;;;-143.72;100.00
8515;BME280;4295;51.024;7.000;2022-09-24T02:28:26;-5990.91;;;-143.72;100.00
8515;BME280;4295;51.024;7.000;2022-09-24T02:31:03;-6240.50;;;-143.72;100.00
8515;BME280;4295;51.024;7.000;2022-09-24T02:33:31;-5990.91;;;-143.72;100.00
8515;BME280;4295;51.024;7.000;2022-09-24T02:36:17;-5990.91;;;-143.72;100.00
8515;BME280;4295;51.024;7.000;2022-09-24T02:38:43;-5741.28;;;-143.72;100.00
8515;BME280;4295;51.024;7.000;2022-09-24T02:41:10;-5491.66;;;-143.72;100.00
8515;BME280;4295;51.024;7.000;2022-09-24T02:43:35;-4992.31;;;-143.72;100.00
8515;BME280;4295;51.024;7.000;2022-09-24T02:46:01;-3993.44;;;-143.72;100.00
8515;BME280;4295;51.024;7.000;2022-09-24T02:48:26;-3244.06;;;-143.72;100.00
8515;BME280;4295;51.024;7.000;2022-09-24T02:50:52;-2994.25;;;-143.72;100.00
8515;BME280;4295;51.024;7.000;2022-09-24T02:53:18;-2994.25;;;-143.72;100.00
8515;BME280;4295;51.024;7.000;2022-09-24T02:55:43;-3244.06;;;-143.72;100.00
8515;BME280;4295;51.024;7.000;2022-09-24T02:58:08;-3493.88;;;-143.72;100.00
8515;BME280;4295;51.024;7.000;2022-09-24T03:00:34;-3743.66;;;-143.72;100.00
8515;BME280;4295;51.024;7.000;2022-09-24T03:02:59;-3993.44;;;-143.72;100.00
8515;BME280;4295;51.024;7.000;2022-09-24T03:05:24;-4243.19;;;-143.72;100.00
8515;BME280;4295;51.024;7.000;2022-09-24T03:07:50;-4492.91;;;-143.72;100.00
8515;BME280;4295;51.024;7.000;2022-09-24T03:10:15;-4492.91;;;-143.72;100.00
8515;BME280;4295;51.024;7.000;2022-09-24T03:12:44;-4492.91;;;-143.72;100.00
8515;BME280;4295;51.024;7.000;2022-09-24T03:15:09;-4492.91;;;-143.72;100.00
8515;BME280;4295;51.024;7.000;2022-09-24T03:17:35;-4492.91;;;-143.72;100.00
8515;BME280;4295;51.024;7.000;2022-09-24T03:20:01;-4492.91;;;-143.72;100.00
8515;BME280;4295;51.024;7.000;2022-09-24T03:22:26;-4492.91;;;-143.72;100.00
8515;BME280;4295;51.024;7.000;2022-09-24T03:24:51;-4243.19;;;-143.72;100.00
8515;BME280;4295;51.024;7.000;2022-09-24T03:27:18;-3993.44;;;-143.72;100.00
8515;BME280;4295;51.024;7.000;2022-09-24T03:29:43;-3993.44;;;-143.72;100.00
8515;BME280;4295;51.024;7.000;2022-09-24T03:32:27;-3993.44;;;-143.72;100.00
8515;BME280;4295;51.024;7.000;2022-09-24T03:34:53;-4243.19;;;-143.72;100.00
8515;BME280;4295;51.024;7.000;2022-09-24T03:37:18;-4243.19;;;-143.72;100.00
8515;BME280;4295;51.024;7.000;2022-09-24T03:39:43;-4492.91;;;-143.72;100.00
8515;BME280;4295;51.024;7.000;2022-09-24T03:42:09;-4742.63;;;-143.72;100.00
8515;BME280;4295;51.024;7.000;2022-09-24T03:44:34;-4992.31;;;-143.72;100.00
8515;BME280;4295;51.024;7.000;2022-09-24T03:47:00;-5242.00;;;-143.72;100.00
8515;BME280;4295;51.024;7.000;2022-09-24T03:49:25;-5491.66;;;-143.72;100.00
8515;BME280;4295;51.024;7.000;2022-09-24T03:51:51;-5242.00;;;-143.72;100.00
8515;BME280;4295;51.024;7.000;2022-09-24T03:54:16;-5242.00;;;-143.72;100.00
8515;BME280;4295;51.024;7.000;2022-09-24T03:56:42;-4992.31;;;-143.72;100.00
8515;BME280;4295;51.024;7.000;2022-09-24T03:59:10;-4992.31;;;-143.72;100.00
8515;BME280;4295;51.024;7.000;2022-09-24T04:01:36;-4992.31;;;-143.72;100.00
8515;BME280;4295;51.024;7.000;2022-09-24T04:04:03;-5242.00;;;-143.72;100.00
8515;BME280;4295;51.024;7.000;2022-09-24T04:06:29;-4992.31;;;-143.72;100.00
8515;BME280;4295;51.024;7.000;2022-09-24T04:08:55;-4742.63;;;-143.72;100.00
8515;BME280;4295;51.024;7.000;2022-09-24T04:11:21;-4492.91;;;-143.72;100.00
8515;BME280;4295;51.024;7.000;2022-09-24T04:13:46;-4492.91;;;-143.72;100.00
8515;BME280;4295;51.024;7.000;2022-09-24T04:16:12;-4243.19;;;-143.72;100.00
8515;BME280;4295;51.024;7.000;2022-09-24T04:18:37;-4243.19;;;-143.72;100.00
8515;BME280;4295;51.024;7.000;2022-09-24T04:21:04;-3993.44;;;-143.72;100.00
8515;BME280;4295;51.024;7.000;2022-09-24T04:23:29;-3743.66;;;-143.72;100.00
8515;BME280;4295;51.024;7.000;2022-09-24T04:25:56;-3493.88;;;-143.72;100.00
8515;BME280;4295;51.024;7.000;2022-09-24T04:28:21;-3493.88;;;-143.72;100.00
8515;BME280;4295;51.024;7.000;2022-09-24T04:30:47;-3493.88;;;-143.72;100.00
8515;BME280;4295;51.024;7.000;2022-09-24T04:33:12;-3493.88;;;-143.72;100.00
8515;BME280;4295;51.024;7.000;2022-09-24T04:35:38;-3743.66;;;-143.72;100.00
8515;BME280;4295;51.024;7.000;2022-09-24T04:38:03;-3743.66;;;-143.72;100.00
8515;BME280;4295;51.024;7.000;2022-09-24T04:40:29;-3743.66;;;-143.72;100.00
8515;BME280;4295;51.024;7.000;2022-09-24T04:42:55;-3743.66;;;-143.72;100.00
8515;BME280;4295;51.024;7.000;2022-09-24T04:45:21;-3493.88;;;-143.72;100.00
8515;BME280;4295;51.024;7.000;2022-09-24T04:47:49;-3493.88;;;-143.72;100.00
8515;BME280;4295;51.024;7.000;2022-09-24T04:50:17;-3493.88;;;-143.72;100.00
8515;BME280;4295;51.024;7.000;2022-09-24T04:52:42;-3493.88;;;-143.72;100.00
8515;BME280;4295;51.024;7.000;2022-09-24T04:55:08;-3493.88;;;-143.72;100.00
8515;BME280;4295;51.024;7.000;2022-09-24T04:57:34;-3244.06;;;-143.72;100.00
8515;BME280;4295;51.024;7.000;2022-09-24T05:00:05;-3244.06;;;-143.72;100.00
8515;BME280;4295;51.024;7.000;2022-09-24T05:02:31;-3244.06;;;-143.72;100.00
8515;BME280;4295;51.024;7.000;2022-09-24T05:04:56;-2994.25;;;-143.72;100.00
8515;BME280;4295;51.024;7.000;2022-09-24T05:07:22;-2994.25;;;-143.72;100.00
8515;BME280;4295;51.024;7.000;2022-09-24T05:09:47;-2744.38;;;-143.72;100.00
8515;BME280;4295;51.024;7.000;2022-09-24T05:12:12;-2494.53;;;-143.72;100.00
8515;BME280;4295;51.024;7.000;2022-09-24T05:14:38;-2494.53;;;-143.72;100.00
8515;BME280;4295;51.024;7.000;2022-09-24T05:17:03;-2244.63;;;-143.72;100.00
8515;BME280;4295;51.024;7.000;2022-09-24T05:19:29;-2244.63;;;-143.72;100.00
8515;BME280;4295;51.024;7.000;2022-09-24T05:21:54;-2244.63;;;-143.72;100.00
8515;BME280;4295;51.024;7.000;2022-09-24T05:24:20;-2244.63;;;-143.72;100.00
8515;BME280;4295;51.024;7.000;2022-09-24T05:26:45;-2494.53;;;-143.72;100.00
8515;BME280;4295;51.024;7.000;2022-09-24T05:29:29;-2744.38;;;-143.72;100.00
8515;BME280;4295;51.024;7.000;2022-09-24T05:31:54;-2744.38;;;-143.72;100.00
8515;BME280;4295;51.024;7.000;2022-09-24T05:34:20;-2744.38;;;-143.72;100.00
8515;BME280;4295;51.024;7.000;2022-09-24T05:36:45;-2744.38;;;-143.72;100.00
8515;BME280;4295;51.024;7.000;2022-09-24T05:39:11;-2494.53;;;-143.72;100.00
8515;BME280;4295;51.024;7.000;2022-09-24T05:41:38;-2494.53;;;-143.72;100.00
8515;BME280;4295;51.024;7.000;2022-09-24T05:44:04;-2744.38;;;-143.72;100.00
8515;BME280;4295;51.024;7.000;2022-09-24T05:46:30;-2494.53;;;-143.72;100.00
8515;BME280;4295;51.024;7.000;2022-09-24T05:48:55;-2744.38;;;-143.72;100.00
8515;BME280;4295;51.024;7.000;2022-09-24T05:51:21;-2744.38;;;-143.72;100.00
8515;BME280;4295;51.024;7.000;2022-09-24T05:53:46;-2994.25;;;-143.72;100.00
8515;BME280;4295;51.024;7.000;2022-09-24T05:56:11;-3244.06;;;-143.72;100.00
8515;BME280;4295;51.024;7.000;2022-09-24T05:58:37;-2994.25;;;-143.72;100.00
8515;BME280;4295;51.024;7.000;2022-09-24T06:01:02;-2994.25;;;-143.72;100.00
8515;BME280;4295;51.024;7.000;2022-09-24T06:03:28;-2744.38;;;-143.72;100.00
8515;BME280;4295;51.024;7.000;2022-09-24T06:05:56;-2244.63;;;-143.72;100.00
8515;BME280;4295;51.024;7.000;2022-09-24T06:08:27;-1994.72;;;-143.72;100.00
8515;BME280;4295;51.024;7.000;2022-09-24T06:11:00;-1744.81;;;-143.72;100.00
8515;BME280;4295;51.024;7.000;2022-09-24T06:13:26;-1744.81;;;-143.72;100.00
8515;BME280;4295;51.024;7.000;2022-09-24T06:15:52;-1994.72;;;-143.72;100.00
8515;BME280;4295;51.024;7.000;2022-09-24T06:18:17;-1994.72;;;-143.72;100.00
8515;BME280;4295;51.024;7.000;2022-09-24T06:20:43;-2244.63;;;-143.72;100.00
8515;BME280;4295;51.024;7.000;2022-09-24T06:23:08;-1994.72;;;-143.72;100.00
8515;BME280;4295;51.024;7.000;2022-09-24T06:25:34;-1744.81;;;-143.72;100.00
8515;BME280;4295;51.024;7.000;2022-09-24T06:28:02;-1744.81;;;-143.72;100.00
8515;BME280;4295;51.024;7.000;2022-09-24T06:30:29;-1494.88;;;-143.72;100.00
8515;BME280;4295;51.024;7.000;2022-09-24T06:33:00;-1744.81;;;-143.72;100.00
8515;BME280;4295;51.024;7.000;2022-09-24T06:35:26;-1744.81;;;-143.72;100.00
8515;BME280;4295;51.024;7.000;2022-09-24T06:37:51;-1744.81;;;-143.72;100.00
8515;BME280;4295;51.024;7.000;2022-09-24T06:40:17;-1494.88;;;-143.72;100.00
8515;BME280;4295;51.024;7.000;2022-09-24T06:42:42;-994.94;;;-143.72;100.00
8515;BME280;4295;51.024;7.000;2022-09-24T06:45:08;-994.94;;;-143.72;100.00
8515;BME280;4295;51.024;7.000;2022-09-24T06:47:33;-744.94;;;-143.72;100.00
8515;BME280;4295;51.024;7.000;2022-09-24T06:49:59;5.19;;;-143.72;100.00
8515;BME280;4295;51.024;7.000;2022-09-24T06:52:24;505.34;;;-143.72;100.00
8515;BME280;4295;51.024;7.000;2022-09-24T06:54:49;755.47;;;-143.72;100.00
8515;BME280;4295;51.024;7.000;2022-09-24T06:57:15;1756.13;;;-143.72;100.00
8515;BME280;4295;51.024;7.000;2022-09-24T06:59:40;2757.06;;;-143.72;100.00
8515;BME280;4295;51.024;7.000;2022-09-24T07:02:07;3507.97;;;-143.72;100.00
8515;BME280;4295;51.024;7.000;2022-09-24T07:04:34;3507.97;;;-143.72;100.00
8515;BME280;4295;51.024;7.000;2022-09-24T07:06:59;3758.31;;;-143.72;100.00
8515;BME280;4295;51.024;7.000;2022-09-24T07:09:43;3758.31;;;-143.72;100.00
8515;BME280;4295;51.024;7.000;2022-09-24T07:12:08;3758.31;;;-143.72;100.00
8515;BME280;4295;51.024;7.000;2022-09-24T07:14:34;4008.69;;;-143.72;100.00
8515;BME280;4295;51.024;7.000;2022-09-24T07:16:59;4509.47;;;-143.72;100.00
8515;BME280;4295;51.024;7.000;2022-09-24T07:19:25;5511.25;;;-143.72;100.00
8515;BME280;4295;51.024;7.000;2022-09-24T07:21:50;6763.94;;;-143.72;100.00
8515;BME280;4295;51.024;7.000;2022-09-24T07:24:16;7265.13;;;-143.72;100.00
8515;BME280;4295;51.024;7.000;2022-09-24T07:26:41;7265.13;;;-143.72;100.00
8515;BME280;4295;51.024;7.000;2022-09-24T07:29:06;6763.94;;;-143.72;100.00
8515;BME280;4295;51.024;7.000;2022-09-24T07:31:32;6513.34;;;-143.72;100.00
8515;BME280;4295;51.024;7.000;2022-09-24T07:33:57;7265.13;;;-143.72;100.00
8515;BME280;4295;51.024;7.000;2022-09-24T07:36:23;7766.41;;;-143.72;100.00
8515;BME280;4295;51.024;7.000;2022-09-24T07:38:48;8518.47;;;-143.72;100.00
8515;BME280;4295;51.024;7.000;2022-09-24T07:41:14;9270.69;;;-143.72;100.00
8515;BME280;4295;51.024;7.000;2022-09-24T07:43:39;9521.47;;;-143.72;100.00
8515;BME280;4295;51.024;7.000;2022-09-24T07:46:04;10023.09;;;-143.72;100.00
8515;BME280;4295;51.024;7.000;2022-09-24T07:48:30;11528.41;;;-143.72;100.00
8515;BME280;4295;51.024;7.000;2022-09-24T07:50:55;12281.34;;;-143.72;100.00
8515;BME280;4295;51.024;7.000;2022-09-24T07:53:21;11277.47;;;-143.72;100.00
8515;BME280;4295;51.024;7.000;2022-09-24T07:55:47;10775.66;;;-143.72;100.00
8515;BME280;4295;51.024;7.000;2022-09-24T07:58:14;12030.34;;;-143.72;100.00
8515;BME280;4295;51.024;7.000;2022-09-24T08:00:39;12783.38;;;-143.72;100.00
8515;BME280;4295;51.024;7.000;2022-09-24T08:03:05;13034.41;;;-143.72;100.00
8515;BME280;4295;51.024;7.000;2022-09-24T08:05:31;13787.69;;;-143.72;100.00
8515;BME280;4295;51.024;7.000;2022-09-24T08:07:57;13787.69;;;-143.72;100.00
8515;BME280;4295;51.024;7.000;2022-09-24T08:10:24;14792.28;;;-143.72;100.00
8515;BME280;4295;51.024;7.000;2022-09-24T08:12:50;15294.72;;;-143.72;100.00
8515;BME280;4295;51.024;7.000;2022-09-24T08:15:15;15043.50;;;-143.72;100.00
8515;BME280;4295;51.024;7.000;2022-09-24T08:17:41;14792.28;;;-143.72;100.00
8515;BME280;4295;51.024;7.000;2022-09-24T08:20:07;15043.50;;;-143.72;100.00
8515;BME280;4295;51.024;7.000;2022-09-24T08:22:32;14792.28;;;-143.72;100.00
8515;BME280;4295;51.024;7.000;2022-09-24T08:24:58;15294.72;;;-143.72;100.00
8515;BME280;4295;51.024;7.000;2022-09-24T08:27:23;18059.41;;;-143.72;100.00
8515;BME280;4295;51.024;7.000;2022-09-24T08:29:50;18813.81;;;-143.72;100.00
8515;BME280;4295;51.024;7.000;2022-09-24T08:32:16;18059.41;;;-143.72;100.00
8515;BME280;4295;51.024;7.000;2022-09-24T08:34:42;17053.78;;;-143.72;100.00
8515;BME280;4295;51.024;7.000;2022-09-24T08:37:07;18310.84;;;-143.72;100.00
8515;BME280;4295;51.024;7.000;2022-09-24T08:39:33;18813.81;;;-143.72;100.00
8515;BME280;4295;51.024;7.000;2022-09-24T08:44:38;16802.44;;;-143.72;100.00
8515;BME280;4295;51.024;7.000;2022-09-24T08:52:45;11779.38;;;-143.72;100.00
8515;BME280;4295;51.024;7.000;2022-09-24T08:55:33;12532.34;;;-143.72;100.00
8515;BME280;4295;51.024;7.000;2022-09-24T09:03:57;19568.38;;;-143.72;100.00
8515;BME280;4295;51.024;7.000;2022-09-24T09:11:58;28384.44;;;-143.72;100.00
8515;BME280;4295;51.024;7.000;2022-09-24T09:20:28;31160.03;;;-143.72;100.00
8515;BME280;4295;51.024;7.000;2022-09-24T09:22:56;32422.41;;;-143.72;100.00
8515;BME280;4295;51.024;7.000;2022-09-24T09:25:26;32422.41;;;-143.72;100.00
8515;BME280;4295;51.024;7.000;2022-09-24T09:27:58;32674.97;;;-143.72;100.00
8515;BME280;4295;51.024;7.000;2022-09-24T09:30:24;34948.63;;;-143.72;100.00
8515;BME280;4295;51.024;7.000;2022-09-24T09:33:07;42032.19;;;-143.72;100.00
8515;BME280;4295;51.024;7.000;2022-09-24T09:38:29;48115.72;;;-143.72;100.00
8515;BME280;4295;51.024;7.000;2022-09-24T09:41:02;41272.53;;;-143.72;100.00
8515;BME280;4295;51.024;7.000;2022-09-24T09:43:32;41525.72;;;-143.72;100.00
8515;BME280;4295;51.024;7.000;2022-09-24T09:46:11;38741.53;;;-143.72;100.00
8515;BME280;4295;51.024;7.000;2022-09-24T09:51:15;33180.09;;;-143.72;100.00
8515;BME280;4295;51.024;7.000;2022-09-24T09:53:52;48623.19;;;-143.72;100.00
8515;BME280;4295;51.024;7.000;2022-09-24T09:56:22;47862.03;;;-143.72;100.00
8515;BME280;4295;51.024;7.000;2022-09-24T09:58:49;44565.66;;;-143.72;100.00
8515;BME280;4295;51.024;7.000;2022-09-24T10:01:19;44819.13;;;-143.72;100.00
8515;BME280;4295;51.024;7.000;2022-09-24T10:03:57;42792.03;;;-143.72;100.00
8515;BME280;4295;51.024;7.000;2022-09-24T10:06:26;44819.13;;;-143.72;100.00
8515;BME280;4295;51.024;7.000;2022-09-24T10:08:52;52177.50;;;-143.72;100.00
8515;BME280;4295;51.024;7.000;2022-09-24T10:11:17;56752.84;;;-143.72;100.00
8515;BME280;4295;51.024;7.000;2022-09-24T10:13:44;55735.56;;;-143.72;100.00
8515;BME280;4295;51.024;7.000;2022-09-24T10:16:11;56752.84;;;-143.72;100.00
8515;BME280;4295;51.024;7.000;2022-09-24T10:18:47;56498.50;;;-143.72;100.00
8515;BME280;4295;51.024;7.000;2022-09-24T10:21:33;63117.75;;;-143.72;100.00
8515;BME280;4295;51.024;7.000;2022-09-24T10:24:02;60825.00;;;-143.72;100.00
8515;BME280;4295;51.024;7.000;2022-09-24T10:26:36;61079.69;;;-143.72;100.00
8515;BME280;4295;51.024;7.000;2022-09-24T10:29:02;64647.09;;;-143.72;100.00
8515;BME280;4295;51.024;7.000;2022-09-24T10:31:46;63372.59;;;-143.72;100.00
8515;BME280;4295;51.024;7.000;2022-09-24T10:34:23;57770.44;;;-143.72;100.00
8515;BME280;4295;51.024;7.000;2022-09-24T10:36:52;56244.16;;;-143.72;100.00
8515;BME280;4295;51.024;7.000;2022-09-24T10:39:20;61079.69;;;-143.72;100.00
8515;BME280;4295;51.024;7.000;2022-09-24T10:41:50;64647.09;;;-143.72;100.00
8515;BME280;4295;51.024;7.000;2022-09-24T10:44:16;61079.69;;;-143.72;100.00
8515;BME280;4295;51.024;7.000;2022-09-24T10:52:08;46847.41;;;-143.72;100.00
8515;BME280;4295;51.024;7.000;2022-09-24T10:57:33;39753.72;;;-143.72;100.00
8515;BME280;4295;51.024;7.000;2022-09-24T11:00:21;38994.56;;;-143.72;100.00
8515;BME280;4295;51.024;7.000;2022-09-24T11:03:19;37223.88;;;-143.72;100.00
8515;BME280;4295;51.024;7.000;2022-09-24T11:05:52;46847.41;;;-143.72;100.00
8515;BME280;4295;51.024;7.000;2022-09-24T11:08:30;47101.03;;;-143.72;100.00
8515;BME280;4295;51.024;7.000;2022-09-24T11:24:36;36465.28;;;-143.72;100.00
8515;BME280;4295;51.024;7.000;2022-09-24T11:43:50;28888.91;;;-143.72;100.00
8515;BME280;4295;51.024;7.000;2022-09-24T11:55:18;20574.75;;;-143.72;100.00
8515;BME280;4295;51.024;7.000;2022-09-24T11:58:03;19065.31;;;-143.72;100.00
8515;BME280;4295;51.024;7.000;2022-09-24T12:00:35;16551.09;;;-143.72;100.00
8515;BME280;4295;51.024;7.000;2022-09-24T12:03:16;19568.38;;;-143.72;100.00
8515;BME280;4295;51.024;7.000;2022-09-24T12:05:57;25611.16;;;-143.72;100.00
8515;BME280;4295;51.024;7.000;2022-09-24T12:08:37;29141.19;;;-143.72;100.00
8515;BME280;4295;51.024;7.000;2022-09-24T12:13:49;39500.63;;;-143.72;100.00
8515;BME280;4295;51.024;7.000;2022-09-24T12:16:19;34443.25;;;-143.72;100.00
8515;BME280;4295;51.024;7.000;2022-09-24T12:18:52;35201.38;;;-143.72;100.00
8515;BME280;4295;51.024;7.000;2022-09-24T12:21:32;47101.03;;;-143.72;100.00
8515;BME280;4295;51.024;7.000;2022-09-24T12:24:02;46340.22;;;-143.72;100.00
8515;BME280;4295;51.024;7.000;2022-09-24T12:26:30;51923.50;;;-143.72;100.00
8515;BME280;4295;51.024;7.000;2022-09-24T12:32:18;57770.44;;;-143.72;100.00
8515;BME280;4295;51.024;7.000;2022-09-24T12:37:51;56498.50;;;-143.72;100.00
8515;BME280;4295;51.024;7.000;2022-09-24T12:42:57;65922.06;;;-143.72;100.00
8515;BME280;4295;51.024;7.000;2022-09-24T12:45:25;67452.66;;;-143.72;100.00
8515;BME280;4295;51.024;7.000;2022-09-24T12:47:55;66177.13;;;-143.72;100.00
8515;BME280;4295;51.024;7.000;2022-09-24T12:50:26;70260.56;;;-143.72;100.00
8515;BME280;4295;51.024;7.000;2022-09-24T12:52:52;65157.03;;;-143.72;100.00
8515;BME280;4295;51.024;7.000;2022-09-24T12:55:27;62353.31;;;-143.72;100.00
8515;BME280;4295;51.024;7.000;2022-09-24T13:03:00;87633.59;;;-143.72;100.00
8515;BME280;4295;51.024;7.000;2022-09-24T13:05:28;90714.91;;;-143.72;100.00
8515;BME280;4295;51.024;7.000;2022-09-24T13:08:23;91044.06;;;-143.72;100.00
8515;BME280;4295;51.024;7.000;2022-09-24T13:10:59;90805.22;;;-143.72;100.00
8515;BME280;4295;51.024;7.000;2022-09-24T13:13:31;90155.00;;;-143.72;100.00
8515;BME280;4295;51.024;7.000;2022-09-24T13:16:03;89569.13;;;-143.72;100.00
8515;BME280;4295;51.024;7.000;2022-09-24T13:18:31;90084.78;;;-143.72;100.00
8515;BME280;4295;51.024;7.000;2022-09-24T13:21:05;89675.47;;;-143.72;100.00
8515;BME280;4295;51.024;7.000;2022-09-24T13:26:05;88361.56;;;-143.72;100.00
8515;BME280;4295;51.024;7.000;2022-09-24T13:28:37;88778.75;;;-143.72;100.00
8515;BME280;4295;51.024;7.000;2022-09-24T13:31:16;88860.97;;;-143.72;100.00
8515;BME280;4295;51.024;7.000;2022-09-24T13:33:48;86528.91;;;-143.72;100.00
8515;BME280;4295;51.024;7.000;2022-09-24T13:38:56;81491.19;;;-143.72;100.00
8515;BME280;4295;51.024;7.000;2022-09-24T13:47:08;82842.56;;;-143.72;100.00
8515;BME280;4295;51.024;7.000;2022-09-24T13:49:39;81689.38;;;-143.72;100.00
8515;BME280;4295;51.024;7.000;2022-09-24T13:52:48;85238.25;;;-143.72;100.00
8515;BME280;4295;51.024;7.000;2022-09-24T13:57:45;77896.19;;;-143.72;100.00
8515;BME280;4295;51.024;7.000;2022-09-24T14:00:18;83547.47;;;-143.72;100.00
8515;BME280;4295;51.024;7.000;2022-09-24T14:02:55;83140.91;;;-143.72;100.00
8515;BME280;4295;51.024;7.000;2022-09-24T14:05:23;85907.56;;;-143.72;100.00
8515;BME280;4295;51.024;7.000;2022-09-24T14:07:54;86344.50;;;-143.72;100.00
8515;BME280;4295;51.024;7.000;2022-09-24T14:10:20;86160.09;;;-143.72;100.00
8515;BME280;4295;51.024;7.000;2022-09-24T14:13:20;86534.94;;;-143.72;100.00
8515;BME280;4295;51.024;7.000;2022-09-24T14:16:08;85178.13;;;-143.72;100.00
8515;BME280;4295;51.024;7.000;2022-09-24T14:18:33;87142.38;;;-143.72;100.00
8515;BME280;4295;51.024;7.000;2022-09-24T14:26:25;85322.41;;;-143.72;100.00
8515;BME280;4295;51.024;7.000;2022-09-24T14:28:52;83138.91;;;-143.72;100.00
8515;BME280;4295;51.024;7.000;2022-09-24T14:31:18;82207.84;;;-143.72;100.00
8515;BME280;4295;51.024;7.000;2022-09-24T14:33:44;85214.19;;;-143.72;100.00
8515;BME280;4295;51.024;7.000;2022-09-24T14:36:11;83385.25;;;-143.72;100.00
8515;BME280;4295;51.024;7.000;2022-09-24T14:38:53;81923.56;;;-143.72;100.00
8515;BME280;4295;51.024;7.000;2022-09-24T14:41:23;83150.94;;;-143.72;100.00
8515;BME280;4295;51.024;7.000;2022-09-24T14:43:52;83541.47;;;-143.72;100.00
8515;BME280;4295;51.024;7.000;2022-09-24T14:46:25;85614.97;;;-143.72;100.00
8515;BME280;4295;51.024;7.000;2022-09-24T14:49:13;86057.88;;;-143.72;100.00
8515;BME280;4295;51.024;7.000;2022-09-24T14:51:50;84324.63;;;-143.72;100.00
8515;BME280;4295;51.024;7.000;2022-09-24T14:54:21;73030.84;;;-143.72;100.00
8515;BME280;4295;51.024;7.000;2022-09-24T14:56:47;67452.66;;;-143.72;100.00
8515;BME280;4295;51.024;7.000;2022-09-24T14:59:14;80944.81;;;-143.72;100.00
8515;BME280;4295;51.024;7.000;2022-09-24T15:01:41;82446.09;;;-143.72;100.00
8515;BME280;4295;51.024;7.000;2022-09-24T15:04:16;70260.56;;;-143.72;100.00
8515;BME280;4295;51.024;7.000;2022-09-24T15:06:45;77770.22;;;-143.72;100.00
8515;BME280;4295;51.024;7.000;2022-09-24T15:09:28;82612.28;;;-143.72;100.00
8515;BME280;4295;51.024;7.000;2022-09-24T15:12:06;62353.31;;;-143.72;100.00